sensor_id;sensor_type;location;lat;lon;timestamp;P1;durP1;ratioP1;P2;durP2;ratioP2
29302;SDS011;60019;45.556;12.004;2023-09-19T00:04:30;12.75;;;5.53;;
29302;SDS011;60019;45.556;12.004;2023-09-19T00:10:33;13.50;;;6.22;;
29302;SDS011;60019;45.556;12.004;2023-09-19T00:16:38;13.82;;;6.63;;
29302;SDS011;60019;45.556;12.004;2023-09-19T00:22:41;11.13;;;6.28;;
29302;SDS011;60019;45.556;12.004;2023-09-19T00:28:43;12.05;;;7.32;;
29302;SDS011;60019;45.556;12.004;2023-09-19T00:34:45;14.52;;;7.00;;
29302;SDS011;60019;45.556;12.004;2023-09-19T00:40:47;13.82;;;8.18;;
29302;SDS011;60019;45.556;12.004;2023-09-19T00:46:49;10.77;;;6.80;;
29302;SDS011;60019;45.556;12.004;2023-09-19T00:52:53;10.00;;;6.13;;
29302;SDS011;60019;45.556;12.004;2023-09-19T00:58:58;12.43;;;7.05;;
29302;SDS011;60019;45.556;12.004;2023-09-19T01:05:00;16.80;;;8.10;;
29302;SDS011;60019;45.556;12.004;2023-09-19T01:11:20;16.73;;;8.70;;
29302;SDS011;60019;45.556;12.004;2023-09-19T01:17:38;15.93;;;7.30;;
29302;SDS011;60019;45.556;12.004;2023-09-19T01:29:47;12.85;;;7.18;;
29302;SDS011;60019;45.556;12.004;2023-09-19T01:35:49;11.55;;;7.72;;
29302;SDS011;60019;45.556;12.004;2023-09-19T01:41:54;23.80;;;8.38;;
29302;SDS011;60019;45.556;12.004;2023-09-19T01:48:01;15.65;;;7.35;;
29302;SDS011;60019;45.556;12.004;2023-09-19T01:54:11;15.13;;;7.68;;
29302;SDS011;60019;45.556;12.004;2023-09-19T02:00:14;15.00;;;7.35;;
29302;SDS011;60019;45.556;12.004;2023-09-19T02:06:18;14.63;;;8.05;;
29302;SDS011;60019;45.556;12.004;2023-09-19T02:12:20;14.80;;;7.05;;
29302;SDS011;60019;45.556;12.004;2023-09-19T02:18:22;16.42;;;7.15;;
29302;SDS011;60019;45.556;12.004;2023-09-19T02:24:24;18.42;;;7.25;;
29302;SDS011;60019;45.556;12.004;2023-09-19T02:30:27;8.30;;;6.05;;
29302;SDS011;60019;45.556;12.004;2023-09-19T02:36:30;14.38;;;5.78;;
29302;SDS011;60019;45.556;12.004;2023-09-19T02:42:32;11.13;;;5.45;;
29302;SDS011;60019;45.556;12.004;2023-09-19T02:48:34;14.98;;;6.25;;
29302;SDS011;60019;45.556;12.004;2023-09-19T02:54:37;8.90;;;4.80;;
29302;SDS011;60019;45.556;12.004;2023-09-19T03:00:39;9.35;;;5.25;;
29302;SDS011;60019;45.556;12.004;2023-09-19T03:06:43;9.13;;;5.47;;
29302;SDS011;60019;45.556;12.004;2023-09-19T03:12:46;14.30;;;5.70;;
29302;SDS011;60019;45.556;12.004;2023-09-19T03:18:48;13.07;;;5.43;;
29302;SDS011;60019;45.556;12.004;2023-09-19T03:24:51;20.52;;;6.60;;
29302;SDS011;60019;45.556;12.004;2023-09-19T03:37:02;19.00;;;5.65;;
29302;SDS011;60019;45.556;12.004;2023-09-19T03:43:04;10.40;;;6.28;;
29302;SDS011;60019;45.556;12.004;2023-09-19T03:49:06;13.80;;;5.43;;
29302;SDS011;60019;45.556;12.004;2023-09-19T03:55:09;15.65;;;7.63;;
29302;SDS011;60019;45.556;12.004;2023-09-19T04:01:13;13.57;;;7.30;;
29302;SDS011;60019;45.556;12.004;2023-09-19T04:07:15;14.15;;;6.82;;
29302;SDS011;60019;45.556;12.004;2023-09-19T04:13:17;11.45;;;7.85;;
29302;SDS011;60019;45.556;12.004;2023-09-19T04:19:19;15.52;;;7.65;;
29302;SDS011;60019;45.556;12.004;2023-09-19T04:25:23;12.48;;;7.75;;
29302;SDS011;60019;45.556;12.004;2023-09-19T04:31:27;14.68;;;8.38;;
29302;SDS011;60019;45.556;12.004;2023-09-19T04:37:29;19.00;;;9.48;;
29302;SDS011;60019;45.556;12.004;2023-09-19T04:43:31;14.75;;;8.05;;
29302;SDS011;60019;45.556;12.004;2023-09-19T04:49:33;14.43;;;7.95;;
29302;SDS011;60019;45.556;12.004;2023-09-19T04:55:35;16.25;;;8.18;;
29302;SDS011;60019;45.556;12.004;2023-09-19T05:01:37;19.35;;;8.75;;
29302;SDS011;60019;45.556;12.004;2023-09-19T05:07:39;14.90;;;7.63;;
29302;SDS011;60019;45.556;12.004;2023-09-19T05:13:41;14.52;;;8.70;;
29302;SDS011;60019;45.556;12.004;2023-09-19T05:19:44;14.60;;;8.35;;
29302;SDS011;60019;45.556;12.004;2023-09-19T05:25:46;9.88;;;7.82;;
29302;SDS011;60019;45.556;12.004;2023-09-19T05:31:49;14.40;;;9.50;;
29302;SDS011;60019;45.556;12.004;2023-09-19T05:37:51;12.95;;;7.63;;
29302;SDS011;60019;45.556;12.004;2023-09-19T05:43:54;13.38;;;9.20;;
29302;SDS011;60019;45.556;12.004;2023-09-19T05:49:55;14.70;;;9.88;;
29302;SDS011;60019;45.556;12.004;2023-09-19T05:55:57;17.85;;;8.63;;
29302;SDS011;60019;45.556;12.004;2023-09-19T06:01:59;11.07;;;7.00;;
29302;SDS011;60019;45.556;12.004;2023-09-19T06:08:01;15.88;;;8.30;;
29302;SDS011;60019;45.556;12.004;2023-09-19T06:14:08;14.05;;;6.45;;
29302;SDS011;60019;45.556;12.004;2023-09-19T06:20:11;10.57;;;7.53;;
29302;SDS011;60019;45.556;12.004;2023-09-19T06:26:20;11.43;;;7.82;;
29302;SDS011;60019;45.556;12.004;2023-09-19T06:32:31;11.65;;;7.57;;
29302;SDS011;60019;45.556;12.004;2023-09-19T06:38:33;11.52;;;6.95;;
29302;SDS011;60019;45.556;12.004;2023-09-19T06:44:36;9.35;;;7.03;;
29302;SDS011;60019;45.556;12.004;2023-09-19T06:50:38;10.52;;;7.20;;
29302;SDS011;60019;45.556;12.004;2023-09-19T06:56:41;13.13;;;7.05;;
29302;SDS011;60019;45.556;12.004;2023-09-19T07:02:44;9.18;;;6.53;;
29302;SDS011;60019;45.556;12.004;2023-09-19T07:08:45;11.57;;;7.05;;
29302;SDS011;60019;45.556;12.004;2023-09-19T07:14:47;13.90;;;7.68;;
29302;SDS011;60019;45.556;12.004;2023-09-19T07:20:49;12.93;;;9.82;;
29302;SDS011;60019;45.556;12.004;2023-09-19T07:26:51;19.05;;;9.93;;
29302;SDS011;60019;45.556;12.004;2023-09-19T07:32:53;12.98;;;10.30;;
29302;SDS011;60019;45.556;12.004;2023-09-19T07:38:54;18.15;;;13.38;;
29302;SDS011;60019;45.556;12.004;2023-09-19T07:44:58;17.85;;;11.43;;
29302;SDS011;60019;45.556;12.004;2023-09-19T07:51:07;16.95;;;11.20;;
29302;SDS011;60019;45.556;12.004;2023-09-19T07:57:09;14.50;;;11.10;;
29302;SDS011;60019;45.556;12.004;2023-09-19T08:03:12;17.58;;;11.70;;
29302;SDS011;60019;45.556;12.004;2023-09-19T08:09:15;18.95;;;10.60;;
29302;SDS011;60019;45.556;12.004;2023-09-19T08:15:21;17.48;;;11.68;;
29302;SDS011;60019;45.556;12.004;2023-09-19T08:21:23;15.10;;;10.77;;
29302;SDS011;60019;45.556;12.004;2023-09-19T08:27:25;11.60;;;8.52;;
29302;SDS011;60019;45.556;12.004;2023-09-19T08:33:31;12.85;;;8.52;;
29302;SDS011;60019;45.556;12.004;2023-09-19T08:39:33;10.25;;;7.88;;
29302;SDS011;60019;45.556;12.004;2023-09-19T08:45:37;14.68;;;8.85;;
29302;SDS011;60019;45.556;12.004;2023-09-19T08:51:44;12.52;;;7.65;;
29302;SDS011;60019;45.556;12.004;2023-09-19T08:57:48;13.68;;;9.13;;
29302;SDS011;60019;45.556;12.004;2023-09-19T09:03:51;14.68;;;8.85;;
29302;SDS011;60019;45.556;12.004;2023-09-19T09:09:53;11.60;;;8.68;;
29302;SDS011;60019;45.556;12.004;2023-09-19T09:15:55;11.23;;;7.95;;
29302;SDS011;60019;45.556;12.004;2023-09-19T09:22:08;13.70;;;8.27;;
29302;SDS011;60019;45.556;12.004;2023-09-19T09:28:10;14.57;;;9.85;;
29302;SDS011;60019;45.556;12.004;2023-09-19T09:34:13;14.68;;;7.93;;
29302;SDS011;60019;45.556;12.004;2023-09-19T09:40:14;15.82;;;9.27;;
29302;SDS011;60019;45.556;12.004;2023-09-19T09:46:17;14.00;;;7.90;;
29302;SDS011;60019;45.556;12.004;2023-09-19T09:52:22;11.05;;;7.40;;
29302;SDS011;60019;45.556;12.004;2023-09-19T09:58:25;16.33;;;8.52;;
29302;SDS011;60019;45.556;12.004;2023-09-19T10:04:29;12.18;;;7.93;;
29302;SDS011;60019;45.556;12.004;2023-09-19T10:10:37;15.70;;;7.68;;
29302;SDS011;60019;45.556;12.004;2023-09-19T10:16:59;13.82;;;8.35;;
29302;SDS011;60019;45.556;12.004;2023-09-19T10:23:05;17.90;;;8.20;;
29302;SDS011;60019;45.556;12.004;2023-09-19T10:29:13;12.55;;;7.50;;
29302;SDS011;60019;45.556;12.004;2023-09-19T10:35:17;14.60;;;6.95;;
29302;SDS011;60019;45.556;12.004;2023-09-19T10:41:18;13.07;;;7.80;;
29302;SDS011;60019;45.556;12.004;2023-09-19T10:47:21;12.43;;;7.00;;
29302;SDS011;60019;45.556;12.004;2023-09-19T10:53:25;9.93;;;5.30;;
29302;SDS011;60019;45.556;12.004;2023-09-19T10:59:27;7.20;;;5.88;;
29302;SDS011;60019;45.556;12.004;2023-09-19T11:05:35;10.55;;;7.30;;
29302;SDS011;60019;45.556;12.004;2023-09-19T11:11:45;9.77;;;5.82;;
29302;SDS011;60019;45.556;12.004;2023-09-19T11:17:51;12.75;;;6.82;;
29302;SDS011;60019;45.556;12.004;2023-09-19T11:30:26;7.53;;;5.68;;
29302;SDS011;60019;45.556;12.004;2023-09-19T11:36:35;9.02;;;5.10;;
29302;SDS011;60019;45.556;12.004;2023-09-19T11:48:45;9.90;;;4.53;;
29302;SDS011;60019;45.556;12.004;2023-09-19T11:54:53;7.10;;;5.18;;
29302;SDS011;60019;45.556;12.004;2023-09-19T12:00:56;7.95;;;4.57;;
29302;SDS011;60019;45.556;12.004;2023-09-19T12:06:59;7.53;;;4.60;;
29302;SDS011;60019;45.556;12.004;2023-09-19T12:13:01;8.63;;;4.60;;
29302;SDS011;60019;45.556;12.004;2023-09-19T12:19:18;10.02;;;4.40;;
29302;SDS011;60019;45.556;12.004;2023-09-19T12:25:24;5.70;;;4.28;;
29302;SDS011;60019;45.556;12.004;2023-09-19T12:31:25;8.02;;;3.97;;
29302;SDS011;60019;45.556;12.004;2023-09-19T12:37:27;8.18;;;4.20;;
29302;SDS011;60019;45.556;12.004;2023-09-19T12:43:31;5.22;;;3.58;;
29302;SDS011;60019;45.556;12.004;2023-09-19T12:49:34;8.95;;;3.53;;
29302;SDS011;60019;45.556;12.004;2023-09-19T12:55:37;6.93;;;3.03;;
29302;SDS011;60019;45.556;12.004;2023-09-19T13:01:40;11.85;;;4.18;;
29302;SDS011;60019;45.556;12.004;2023-09-19T13:07:50;9.13;;;3.90;;
29302;SDS011;60019;45.556;12.004;2023-09-19T13:20:26;5.68;;;3.17;;
29302;SDS011;60019;45.556;12.004;2023-09-19T13:26:28;7.18;;;3.08;;
29302;SDS011;60019;45.556;12.004;2023-09-19T13:32:31;4.50;;;3.20;;
29302;SDS011;60019;45.556;12.004;2023-09-19T13:38:33;5.43;;;2.72;;
29302;SDS011;60019;45.556;12.004;2023-09-19T13:44:35;2.97;;;2.53;;
29302;SDS011;60019;45.556;12.004;2023-09-19T13:50:37;7.45;;;3.42;;
29302;SDS011;60019;45.556;12.004;2023-09-19T13:56:42;5.05;;;2.80;;
29302;SDS011;60019;45.556;12.004;2023-09-19T14:02:44;6.72;;;3.38;;
29302;SDS011;60019;45.556;12.004;2023-09-19T14:08:46;5.15;;;3.40;;
29302;SDS011;60019;45.556;12.004;2023-09-19T14:14:50;4.38;;;2.63;;
29302;SDS011;60019;45.556;12.004;2023-09-19T14:20:52;5.55;;;3.13;;
29302;SDS011;60019;45.556;12.004;2023-09-19T14:26:54;4.60;;;2.97;;
29302;SDS011;60019;45.556;12.004;2023-09-19T14:32:56;4.82;;;3.13;;
29302;SDS011;60019;45.556;12.004;2023-09-19T14:38:59;4.95;;;3.08;;
29302;SDS011;60019;45.556;12.004;2023-09-19T14:45:01;5.40;;;2.92;;
29302;SDS011;60019;45.556;12.004;2023-09-19T14:51:03;3.83;;;2.88;;
29302;SDS011;60019;45.556;12.004;2023-09-19T14:57:05;6.50;;;3.33;;
29302;SDS011;60019;45.556;12.004;2023-09-19T15:03:09;6.45;;;3.53;;
29302;SDS011;60019;45.556;12.004;2023-09-19T15:09:12;5.47;;;2.70;;
29302;SDS011;60019;45.556;12.004;2023-09-19T19:40:42;15.73;;;6.03;;
29302;SDS011;60019;45.556;12.004;2023-09-19T19:46:44;14.07;;;5.32;;
29302;SDS011;60019;45.556;12.004;2023-09-19T19:52:50;13.60;;;6.40;;
29302;SDS011;60019;45.556;12.004;2023-09-19T19:58:54;17.85;;;6.00;;
29302;SDS011;60019;45.556;12.004;2023-09-19T20:04:55;10.20;;;6.80;;
29302;SDS011;60019;45.556;12.004;2023-09-19T20:11:04;18.52;;;8.10;;
29302;SDS011;60019;45.556;12.004;2023-09-19T20:17:07;13.23;;;8.30;;
29302;SDS011;60019;45.556;12.004;2023-09-19T20:23:11;13.70;;;6.90;;
29302;SDS011;60019;45.556;12.004;2023-09-19T20:29:13;13.38;;;7.15;;
29302;SDS011;60019;45.556;12.004;2023-09-19T20:35:15;11.85;;;6.15;;
29302;SDS011;60019;45.556;12.004;2023-09-19T20:41:17;12.40;;;7.50;;
29302;SDS011;60019;45.556;12.004;2023-09-19T20:47:19;17.90;;;9.10;;
29302;SDS011;60019;45.556;12.004;2023-09-19T20:53:21;18.20;;;8.18;;
29302;SDS011;60019;45.556;12.004;2023-09-19T20:59:22;11.18;;;8.00;;
29302;SDS011;60019;45.556;12.004;2023-09-19T21:05:27;11.85;;;6.93;;
29302;SDS011;60019;45.556;12.004;2023-09-19T21:11:29;10.55;;;5.72;;
29302;SDS011;60019;45.556;12.004;2023-09-19T21:17:31;9.38;;;5.80;;
29302;SDS011;60019;45.556;12.004;2023-09-19T21:23:33;10.55;;;5.25;;
29302;SDS011;60019;45.556;12.004;2023-09-19T21:29:35;10.73;;;6.00;;
29302;SDS011;60019;45.556;12.004;2023-09-19T21:35:43;10.48;;;4.65;;
29302;SDS011;60019;45.556;12.004;2023-09-19T21:41:45;7.03;;;5.03;;
29302;SDS011;60019;45.556;12.004;2023-09-19T21:47:47;14.32;;;5.32;;
29302;SDS011;60019;45.556;12.004;2023-09-19T21:53:49;9.93;;;5.90;;
29302;SDS011;60019;45.556;12.004;2023-09-19T21:59:51;12.60;;;5.13;;
29302;SDS011;60019;45.556;12.004;2023-09-19T22:05:53;6.35;;;4.65;;
29302;SDS011;60019;45.556;12.004;2023-09-19T22:12:02;7.80;;;4.40;;
29302;SDS011;60019;45.556;12.004;2023-09-19T22:18:10;8.75;;;4.72;;
29302;SDS011;60019;45.556;12.004;2023-09-19T22:24:12;9.65;;;5.35;;
29302;SDS011;60019;45.556;12.004;2023-09-19T22:30:16;9.23;;;5.57;;
29302;SDS011;60019;45.556;12.004;2023-09-19T22:36:20;8.73;;;5.35;;
29302;SDS011;60019;45.556;12.004;2023-09-19T22:42:31;12.85;;;5.63;;
29302;SDS011;60019;45.556;12.004;2023-09-19T22:48:34;9.38;;;5.63;;
29302;SDS011;60019;45.556;12.004;2023-09-19T22:54:36;8.95;;;5.28;;
29302;SDS011;60019;45.556;12.004;2023-09-19T23:00:39;9.02;;;5.47;;
29302;SDS011;60019;45.556;12.004;2023-09-19T23:06:43;7.53;;;4.40;;
29302;SDS011;60019;45.556;12.004;2023-09-19T23:12:48;7.70;;;5.30;;
29302;SDS011;60019;45.556;12.004;2023-09-19T23:18:50;7.85;;;5.10;;
29302;SDS011;60019;45.556;12.004;2023-09-19T23:24:52;6.30;;;4.53;;
29302;SDS011;60019;45.556;12.004;2023-09-19T23:31:07;16.15;;;6.15;;
29302;SDS011;60019;45.556;12.004;2023-09-19T23:37:09;13.98;;;6.70;;
29302;SDS011;60019;45.556;12.004;2023-09-19T23:43:11;11.93;;;6.68;;
29302;SDS011;60019;45.556;12.004;2023-09-19T23:49:13;5.68;;;4.55;;
29302;SDS011;60019;45.556;12.004;2023-09-19T23:55:14;10.50;;;4.32;;
